TAF KSFB
KSFB 090702Z 0907/1006 VRB03KT 3SM MIFG BR SCT002 TEMPO 0908/0911 1SM BR BKN002 FM091400 05004KT P6SM SCT010 SCT250 FM091800 08006KT P6SM SCT035 SCT250 FM100100 04003KT P6SM FEW050=
METAR KSFB
WC KSFB
WS KSFB
WV KSFB